CUZ weather

Alejandro Velasco Astete International Airport
Cusco, Cuzco Region, PerĂº

Public forecast

Using degrees Celsius for public forecast. Weather courtesy of forecast.io.

METAR (pilot weather report)

Retrieved 2019/05/24 15:30 UTC (0 seconds ago):

SPZO 241530Z 27003KT 9999 FEW050 16/M02 Q1035 NOSIG RMK BIRD HAZARD RWY 28

TAF (pilot weather forecast)

Retrieved 2019/05/24 12:33 UTC (3 hours ago):

TAF SPZO 241100Z 2412/2512 00000KT 9999 FEW050 TX21/2419Z TN02/2511Z TEMPO 2418/2422 27012KT